aviador You're here:

KGRD Decoded Metar

GREENWOOD in SC, USA
Report Time2018-01-22 11:56:00
UTC Time2018-01-22 12:10:31
Flight Rules vfr VFR
WindCalm
Visibility9999 m
Phenomena:N/A
Clouds:N/A
CeilingNone
Temp03°C (ISA -11)
Dew Point03°C (100% RH)
AAT1.5°C
QNH1022 hPa
Density Alt-902 ft
Elevation607 ft
Report Wrong Elevation
Raw Report
KGRD 221156Z AUTO 00000KT 10SM CLR 03/03 A3017 RMK AO2 SLP218
T00280028 10050 20028 56001=

Extra information for KGRD:More info

Metar Taf Metar & Taf Last 4 Metars F.Rules Stats Wind Profile Meteogram Temp Stats Airport Information Weather charts Add Link Nearby VenuesMetar ALERT Operation Metar Decoded Social comments

AIRNAV info for KGRD